Time;durP1;ratioP1;P1;durP2;ratioP2;P2;SDS_P1;SDS_P2;PMS_P1;PMS_P2;Temp;Humidity;BMP_temperature;BMP_pressure;BME280_temperature;BME280_humidity;BME280_pressure;Samples;Min_cycle;Max_cycle;Signal;HPM_P1;HPM_P2
2024/03/24 00:00:28;;;;;;;4.83;2.73;;;5.80;99.90;;;;;;4934556;29;20223;-65
2024/03/24 00:02:55;;;;;;;3.93;2.70;;;5.90;99.90;;;;;;4934247;29;20722;-65
2024/03/24 00:05:22;;;;;;;11.40;2.83;;;6.00;99.90;;;;;;4933885;29;20711;-65
2024/03/24 00:07:49;;;;;;;6.50;2.60;;;5.90;99.90;;;;;;4932132;29;20324;-65
2024/03/24 00:10:16;;;;;;;10.97;2.80;;;6.00;99.90;;;;;;4931046;29;20225;-65
2024/03/24 00:12:43;;;;;;;5.73;2.80;;;6.00;99.90;;;;;;4916110;29;20220;-65
2024/03/24 00:15:11;;;;;;;8.90;3.20;;;5.90;99.90;;;;;;4932103;29;20232;-65
2024/03/24 00:17:38;;;;;;;7.03;3.00;;;5.90;99.90;;;;;;4932981;28;20307;-64
2024/03/24 00:20:07;;;;;;;4.70;2.80;;;5.90;99.90;;;;;;4931054;29;20275;-65
2024/03/24 00:22:34;;;;;;;9.53;3.20;;;5.90;99.90;;;;;;4916444;29;21284;-65
2024/03/24 00:25:00;;;;;;;8.40;3.23;;;5.90;99.90;;;;;;4931594;29;20223;-65
2024/03/24 00:27:27;;;;;;;7.93;3.00;;;6.00;99.90;;;;;;4934541;29;20220;-65
2024/03/24 00:29:54;;;;;;;7.23;3.23;;;6.00;99.90;;;;;;4918870;29;20621;-65
2024/03/24 00:32:23;;;;;;;7.33;3.20;;;6.00;99.90;;;;;;4927651;29;20220;-65
2024/03/24 00:34:50;;;;;;;7.63;3.10;;;6.00;99.90;;;;;;4930280;29;20319;-65
2024/03/24 00:37:20;;;;;;;4.03;2.70;;;6.00;99.90;;;;;;4932233;29;20235;-65
2024/03/24 00:39:46;;;;;;;8.10;3.13;;;6.00;99.90;;;;;;4912360;29;20225;-65
2024/03/24 00:42:14;;;;;;;9.83;3.03;;;6.00;99.90;;;;;;4932324;29;20271;-65
2024/03/24 00:44:41;;;;;;;5.93;3.03;;;5.90;99.90;;;;;;4931138;29;20306;-65
2024/03/24 00:47:08;;;;;;;8.90;3.20;;;5.90;99.90;;;;;;4931743;29;20193;-65
2024/03/24 00:49:36;;;;;;;7.30;2.70;;;5.90;99.90;;;;;;4931398;29;20614;-66
2024/03/24 00:52:05;;;;;;;8.13;3.70;;;5.90;99.90;;;;;;4929988;29;20221;-65
2024/03/24 00:54:32;;;;;;;4.27;2.90;;;6.00;99.90;;;;;;4931795;29;20213;-65
2024/03/24 00:56:59;;;;;;;5.37;2.80;;;5.90;99.90;;;;;;4930734;29;20232;-65
2024/03/24 00:59:25;;;;;;;10.20;2.87;;;6.00;99.90;;;;;;4932795;29;20205;-66
2024/03/24 01:01:53;;;;;;;3.80;2.73;;;6.00;99.90;;;;;;4932154;29;20344;-65
2024/03/24 01:04:19;;;;;;;13.17;3.03;;;6.00;99.90;;;;;;4933076;29;20220;-65
2024/03/24 01:06:48;;;;;;;9.70;3.07;;;6.00;99.90;;;;;;4930406;29;20221;-65
2024/03/24 01:09:14;;;;;;;6.60;2.80;;;6.00;99.90;;;;;;4932593;29;20231;-65
2024/03/24 01:11:41;;;;;;;4.47;2.57;;;6.00;99.90;;;;;;4931540;29;20300;-65
2024/03/24 01:14:08;;;;;;;4.40;2.70;;;6.10;99.90;;;;;;4932414;29;20744;-66
2024/03/24 01:16:35;;;;;;;3.67;2.57;;;6.10;99.90;;;;;;4929416;29;20220;-65
2024/03/24 01:19:01;;;;;;;3.83;2.90;;;6.10;99.90;;;;;;4928125;29;20221;-66
2024/03/24 01:21:28;;;;;;;6.77;2.80;;;6.10;99.90;;;;;;4929751;29;20614;-65
2024/03/24 01:23:58;;;;;;;4.63;2.53;;;6.10;99.90;;;;;;4932225;28;20331;-65
2024/03/24 01:26:26;;;;;;;7.80;2.60;;;6.20;99.90;;;;;;4929967;29;20197;-65
2024/03/24 01:28:52;;;;;;;4.30;2.60;;;6.20;99.90;;;;;;4927105;29;20227;-65
2024/03/24 01:31:19;;;;;;;7.30;2.47;;;6.20;99.90;;;;;;4911153;29;20331;-65
2024/03/24 01:33:46;;;;;;;8.63;2.70;;;6.20;99.90;;;;;;4930823;29;20987;-66
2024/03/24 01:36:13;;;;;;;4.60;2.50;;;6.30;99.90;;;;;;4931233;29;20741;-65
2024/03/24 01:38:39;;;;;;;5.70;2.73;;;6.30;99.90;;;;;;4931625;29;20323;-65
2024/03/24 01:41:08;;;;;;;11.87;2.90;;;6.30;99.90;;;;;;4932651;29;20530;-65
2024/03/24 01:43:34;;;;;;;9.60;3.07;;;6.30;99.90;;;;;;4933344;29;20361;-65
2024/03/24 01:46:03;;;;;;;7.23;2.57;;;6.30;99.90;;;;;;4932653;29;20220;-65
2024/03/24 01:48:30;;;;;;;5.37;2.53;;;6.30;99.90;;;;;;4929309;29;20220;-65
2024/03/24 01:50:57;;;;;;;11.50;2.90;;;6.20;99.90;;;;;;4932652;29;20229;-65
2024/03/24 01:53:25;;;;;;;8.53;2.47;;;6.20;99.90;;;;;;4932076;29;20264;-65
2024/03/24 01:55:52;;;;;;;5.47;2.90;;;6.20;99.90;;;;;;4930703;29;20213;-65
2024/03/24 01:58:20;;;;;;;5.13;2.70;;;6.10;99.90;;;;;;4929910;29;20220;-65
2024/03/24 02:00:48;;;;;;;8.00;2.87;;;6.10;99.90;;;;;;4927578;29;20579;-65
2024/03/24 02:03:16;;;;;;;10.43;2.87;;;6.10;99.90;;;;;;4930691;29;20228;-65
2024/03/24 02:05:43;;;;;;;10.87;3.10;;;6.10;99.90;;;;;;4931929;29;20244;-65
2024/03/24 02:08:09;;;;;;;12.03;3.00;;;6.10;99.90;;;;;;4928002;29;20243;-65
2024/03/24 02:10:37;;;;;;;8.80;2.80;;;6.10;99.90;;;;;;4931814;29;20702;-65
2024/03/24 02:13:03;;;;;;;12.07;3.37;;;6.20;99.90;;;;;;4928256;29;20283;-65
2024/03/24 02:15:32;;;;;;;7.30;2.70;;;6.20;99.90;;;;;;4941935;28;20232;-65
2024/03/24 02:17:58;;;;;;;6.57;2.80;;;6.20;99.90;;;;;;4931072;29;20224;-65
2024/03/24 02:20:26;;;;;;;9.50;2.70;;;6.30;99.90;;;;;;4930650;29;20536;-65
2024/03/24 02:22:54;;;;;;;7.17;2.50;;;6.30;99.90;;;;;;4928067;29;20652;-65
2024/03/24 02:25:21;;;;;;;10.90;3.17;;;6.40;99.90;;;;;;4906799;29;20276;-65
2024/03/24 02:27:47;;;;;;;8.43;3.00;;;6.40;99.90;;;;;;4927376;29;20699;-65
2024/03/24 02:30:15;;;;;;;5.10;2.67;;;6.30;99.90;;;;;;4910675;29;20232;-65
2024/03/24 02:32:44;;;;;;;10.33;3.23;;;6.30;99.90;;;;;;4926882;29;20229;-65
2024/03/24 02:35:12;;;;;;;6.03;3.10;;;6.20;99.90;;;;;;4910486;29;20644;-65
2024/03/24 02:37:39;;;;;;;15.57;3.87;;;6.20;99.90;;;;;;4927067;29;20228;-65
2024/03/24 02:40:09;;;;;;;17.57;3.20;;;6.10;99.90;;;;;;4924105;29;20225;-65
2024/03/24 02:42:35;;;;;;;10.50;3.30;;;6.20;99.90;;;;;;4929548;29;20251;-65
2024/03/24 02:45:03;;;;;;;10.03;3.40;;;6.20;99.90;;;;;;4930619;29;20703;-65
2024/03/24 02:47:31;;;;;;;12.37;3.50;;;6.20;99.90;;;;;;4926980;29;20211;-63
2024/03/24 02:49:59;;;;;;;12.53;3.23;;;6.30;99.90;;;;;;4926354;29;20702;-65
2024/03/24 02:52:25;;;;;;;10.43;3.20;;;6.40;99.90;;;;;;4928095;29;20232;-65
2024/03/24 02:54:53;;;;;;;11.47;3.37;;;6.40;99.90;;;;;;4928289;29;20223;-65
2024/03/24 02:57:20;;;;;;;8.20;3.00;;;6.40;99.90;;;;;;4928419;29;20828;-65
2024/03/24 02:59:48;;;;;;;10.57;2.87;;;6.50;99.90;;;;;;4929631;29;20189;-64
2024/03/24 03:02:17;;;;;;;13.47;3.07;;;6.50;99.90;;;;;;4926962;29;20196;-65
2024/03/24 03:04:44;;;;;;;7.47;2.93;;;6.60;99.90;;;;;;4924792;29;20300;-65
2024/03/24 03:07:13;;;;;;;8.67;3.17;;;6.60;99.90;;;;;;4914764;29;20220;-66
2024/03/24 03:09:40;;;;;;;7.77;3.10;;;6.60;99.90;;;;;;4925614;29;20235;-65
2024/03/24 03:12:07;;;;;;;13.90;3.43;;;6.70;99.90;;;;;;4930303;29;20220;-65
2024/03/24 03:14:36;;;;;;;11.37;3.37;;;6.70;99.90;;;;;;4928872;29;20642;-64
2024/03/24 03:17:06;;;;;;;6.93;3.03;;;6.70;99.90;;;;;;4927358;29;20216;-65
2024/03/24 03:19:33;;;;;;;11.43;3.43;;;6.70;99.90;;;;;;4922377;29;20224;-65
2024/03/24 03:21:59;;;;;;;13.87;3.20;;;6.70;99.90;;;;;;4928369;29;20225;-65
2024/03/24 03:24:26;;;;;;;15.07;3.70;;;6.70;99.90;;;;;;4925497;29;20216;-66
2024/03/24 03:26:53;;;;;;;8.13;3.20;;;6.70;99.90;;;;;;4929874;29;20287;-65
2024/03/24 03:29:20;;;;;;;11.57;3.40;;;6.80;99.90;;;;;;4912166;29;20284;-65
2024/03/24 03:31:48;;;;;;;9.37;3.17;;;6.80;99.90;;;;;;4931470;29;20221;-66
2024/03/24 03:34:16;;;;;;;11.57;3.60;;;6.80;99.90;;;;;;4913416;29;20216;-65
2024/03/24 03:36:43;;;;;;;14.37;2.90;;;6.80;99.90;;;;;;4923419;29;20224;-64
2024/03/24 03:39:11;;;;;;;15.40;3.90;;;6.80;99.90;;;;;;4923922;29;20302;-65
2024/03/24 03:41:37;;;;;;;6.57;3.23;;;6.80;99.90;;;;;;4930171;29;20193;-64
2024/03/24 03:44:05;;;;;;;11.00;3.50;;;6.80;99.90;;;;;;4928386;29;20196;-65
2024/03/24 03:46:31;;;;;;;10.07;3.60;;;6.80;99.90;;;;;;4930331;29;20322;-66
2024/03/24 03:49:01;;;;;;;11.67;3.10;;;6.80;99.90;;;;;;4913348;29;20225;-65
2024/03/24 03:51:36;;;;;;;9.07;2.93;;;6.80;99.90;;;;;;4931483;29;20316;-66
2024/03/24 03:54:04;;;;;;;7.27;3.10;;;6.80;99.90;;;;;;4924462;29;20224;-65
2024/03/24 03:56:31;;;;;;;12.20;3.33;;;6.70;99.90;;;;;;4926345;29;20193;-64
2024/03/24 03:58:58;;;;;;;13.30;3.33;;;6.70;99.90;;;;;;4929783;29;20198;-66
2024/03/24 04:01:26;;;;;;;10.10;3.50;;;6.70;99.90;;;;;;4911461;29;21177;-65
2024/03/24 04:03:52;;;;;;;12.27;3.63;;;6.60;99.90;;;;;;4928413;29;20255;-65
2024/03/24 04:06:21;;;;;;;17.90;3.37;;;6.70;99.90;;;;;;4930362;29;20642;-65
2024/03/24 04:08:48;;;;;;;12.33;3.63;;;6.70;99.90;;;;;;4926009;29;20201;-65
2024/03/24 04:11:15;;;;;;;8.27;3.20;;;6.70;99.90;;;;;;4931498;29;20200;-65
2024/03/24 04:13:42;;;;;;;12.47;3.20;;;6.70;99.90;;;;;;4925844;29;20213;-65
2024/03/24 04:16:10;;;;;;;11.23;3.40;;;6.70;99.90;;;;;;4924813;29;20311;-65
2024/03/24 04:18:37;;;;;;;11.13;3.17;;;6.70;99.90;;;;;;4930685;29;20319;-66
2024/03/24 04:21:07;;;;;;;11.03;3.17;;;6.70;99.90;;;;;;4932982;29;20218;-66
2024/03/24 04:23:35;;;;;;;12.50;3.47;;;6.70;99.90;;;;;;4929441;29;20293;-64
2024/03/24 04:26:02;;;;;;;14.13;3.70;;;6.70;99.90;;;;;;4930558;29;20292;-65
2024/03/24 04:28:28;;;;;;;13.33;3.33;;;6.80;99.90;;;;;;4931142;29;20245;-65
2024/03/24 04:30:56;;;;;;;11.93;3.33;;;6.70;99.90;;;;;;4931894;29;20228;-65
2024/03/24 04:33:22;;;;;;;12.50;3.70;;;6.70;99.90;;;;;;4928500;29;21174;-65
2024/03/24 04:35:50;;;;;;;9.43;3.30;;;6.60;99.90;;;;;;4929441;28;20292;-64
2024/03/24 04:38:16;;;;;;;11.00;3.20;;;6.60;99.90;;;;;;4931456;29;20264;-65
2024/03/24 04:40:46;;;;;;;7.80;3.00;;;6.60;99.90;;;;;;4932210;29;20252;-65
2024/03/24 04:43:15;;;;;;;11.30;4.00;;;6.60;99.90;;;;;;4925746;29;20225;-65
2024/03/24 04:45:44;;;;;;;11.20;3.67;;;6.60;99.90;;;;;;4933656;29;20303;-65
2024/03/24 04:48:11;;;;;;;12.50;3.33;;;6.60;99.90;;;;;;4932027;29;20221;-64
2024/03/24 04:50:38;;;;;;;15.57;3.90;;;6.60;99.90;;;;;;4933290;29;20288;-64
2024/03/24 04:53:06;;;;;;;7.33;3.37;;;6.70;99.90;;;;;;4933457;29;20232;-65
2024/03/24 04:55:34;;;;;;;16.40;3.90;;;6.70;99.90;;;;;;4933377;29;20220;-65
2024/03/24 04:58:01;;;;;;;7.73;3.57;;;6.70;99.90;;;;;;4932331;29;20228;-65
2024/03/24 05:00:29;;;;;;;11.30;3.27;;;6.60;99.90;;;;;;4931956;29;20303;-65
2024/03/24 05:02:55;;;;;;;9.50;3.50;;;6.60;99.90;;;;;;4930441;29;20301;-64
2024/03/24 05:05:23;;;;;;;17.97;3.77;;;6.50;99.90;;;;;;4935531;29;20243;-65
2024/03/24 05:07:49;;;;;;;9.57;3.23;;;6.50;99.90;;;;;;4932446;29;20831;-64
2024/03/24 05:10:19;;;;;;;8.07;3.20;;;6.40;99.90;;;;;;4933631;29;20307;-64
2024/03/24 05:12:45;;;;;;;11.97;3.70;;;6.40;99.90;;;;;;4931813;29;20217;-64
2024/03/24 05:15:14;;;;;;;13.33;3.67;;;6.40;99.90;;;;;;4933082;29;20234;-64
2024/03/24 05:17:40;;;;;;;8.90;3.60;;;6.50;99.90;;;;;;4920384;29;20221;-64
2024/03/24 05:20:09;;;;;;;12.73;3.43;;;6.50;99.90;;;;;;4931667;29;20200;-65
2024/03/24 05:22:35;;;;;;;15.40;3.57;;;6.50;99.90;;;;;;4932635;29;20225;-65
2024/03/24 05:25:04;;;;;;;9.40;3.57;;;6.50;99.90;;;;;;4932373;29;20227;-65
2024/03/24 05:27:30;;;;;;;11.80;3.30;;;6.60;99.90;;;;;;4915684;29;20212;-65
2024/03/24 05:29:58;;;;;;;12.07;3.90;;;6.60;99.90;;;;;;4929318;29;20224;-65
2024/03/24 05:32:26;;;;;;;11.27;3.47;;;6.60;99.90;;;;;;4931950;29;20300;-65
2024/03/24 05:34:53;;;;;;;7.53;3.33;;;6.60;99.90;;;;;;4930617;29;20231;-65
2024/03/24 05:37:19;;;;;;;8.33;3.47;;;6.60;99.90;;;;;;4929073;29;20228;-65
2024/03/24 05:39:48;;;;;;;11.17;3.33;;;6.60;99.90;;;;;;4930703;29;20250;-65
2024/03/24 05:42:14;;;;;;;12.83;3.60;;;6.60;99.90;;;;;;4930365;29;20335;-65
2024/03/24 05:44:42;;;;;;;14.47;3.80;;;6.60;99.90;;;;;;4930717;29;20660;-65
2024/03/24 05:47:08;;;;;;;11.17;3.63;;;6.70;99.90;;;;;;4930872;29;20214;-66
2024/03/24 05:49:37;;;;;;;14.20;4.40;;;6.60;99.90;;;;;;4930232;29;20229;-65
2024/03/24 05:52:04;;;;;;;8.53;3.30;;;6.70;99.90;;;;;;4940811;28;20300;-65
2024/03/24 05:54:32;;;;;;;11.03;3.50;;;6.70;99.90;;;;;;4928278;29;20303;-65
2024/03/24 05:56:58;;;;;;;15.93;4.07;;;6.70;99.90;;;;;;4931736;29;20231;-65
2024/03/24 05:59:25;;;;;;;10.67;3.97;;;6.70;99.90;;;;;;4931617;29;20299;-66
2024/03/24 06:01:53;;;;;;;13.90;4.00;;;6.70;99.90;;;;;;4929563;29;20278;-66
2024/03/24 06:04:20;;;;;;;11.63;3.87;;;6.80;99.90;;;;;;4928845;29;20229;-65
2024/03/24 06:06:48;;;;;;;18.90;3.90;;;6.70;99.90;;;;;;4929476;29;20228;-65
2024/03/24 06:09:16;;;;;;;8.67;4.03;;;6.60;99.90;;;;;;4925067;29;20259;-66
2024/03/24 06:11:42;;;;;;;16.67;4.50;;;6.50;99.90;;;;;;4930069;29;20280;-65
2024/03/24 06:14:10;;;;;;;16.13;4.40;;;6.40;99.90;;;;;;4929259;29;20731;-66
2024/03/24 06:16:36;;;;;;;15.17;4.20;;;6.30;99.90;;;;;;4917475;28;20222;-66
2024/03/24 06:19:03;;;;;;;15.63;4.57;;;6.20;99.90;;;;;;4924016;29;20335;-66
2024/03/24 06:21:30;;;;;;;17.30;4.23;;;6.10;99.90;;;;;;4928459;29;20227;-66
2024/03/24 06:23:59;;;;;;;16.63;4.57;;;6.10;99.90;;;;;;4925162;29;20306;-66
2024/03/24 06:26:25;;;;;;;14.70;4.23;;;6.20;99.90;;;;;;4932874;29;20193;-66
2024/03/24 06:28:53;;;;;;;19.87;5.00;;;6.20;99.90;;;;;;4926200;29;20222;-66
2024/03/24 06:31:19;;;;;;;13.40;4.70;;;6.30;99.90;;;;;;4931829;29;20278;-66
2024/03/24 06:33:47;;;;;;;24.50;5.57;;;6.40;99.90;;;;;;4911480;29;20219;-66
2024/03/24 06:36:13;;;;;;;12.30;4.40;;;6.40;99.90;;;;;;4924706;29;20220;-66
2024/03/24 06:38:40;;;;;;;15.00;4.90;;;6.40;99.90;;;;;;4925284;29;20233;-66
2024/03/24 06:41:08;;;;;;;17.90;5.10;;;6.40;99.90;;;;;;4930220;29;20201;-66
2024/03/24 06:43:41;;;;;;;15.63;4.80;;;6.40;99.90;;;;;;4929624;29;20323;-66
2024/03/24 06:46:08;;;;;;;15.40;4.67;;;6.50;99.90;;;;;;4933968;29;20224;-66
2024/03/24 06:48:36;;;;;;;14.27;4.43;;;6.80;99.90;;;;;;4931551;29;20224;-66
2024/03/24 06:51:04;;;;;;;11.50;4.27;;;7.00;99.90;;;;;;4930953;29;20220;-66
2024/03/24 06:53:32;;;;;;;9.60;3.43;;;7.00;99.90;;;;;;4930517;29;20211;-64
2024/03/24 06:55:58;;;;;;;15.93;4.40;;;7.00;99.90;;;;;;4932040;29;20243;-66
2024/03/24 06:58:27;;;;;;;11.23;4.40;;;7.00;99.90;;;;;;4930964;29;20227;-66
2024/03/24 07:00:53;;;;;;;16.37;4.80;;;7.00;99.90;;;;;;4932425;29;20831;-66
2024/03/24 07:03:21;;;;;;;11.83;4.43;;;7.00;99.90;;;;;;4926211;29;20283;-65
2024/03/24 07:05:47;;;;;;;11.03;4.20;;;6.90;99.90;;;;;;4932293;29;20727;-66
2024/03/24 07:08:15;;;;;;;11.77;4.27;;;6.80;99.90;;;;;;4930386;29;20287;-66
2024/03/24 07:10:41;;;;;;;23.20;4.90;;;6.80;99.90;;;;;;4931247;29;20228;-66
2024/03/24 07:13:08;;;;;;;10.60;4.33;;;6.80;99.90;;;;;;4930753;29;20227;-66
2024/03/24 07:15:36;;;;;;;17.23;5.77;;;6.90;99.90;;;;;;4929989;29;20234;-66
2024/03/24 07:18:04;;;;;;;16.87;4.90;;;7.00;99.90;;;;;;4931239;29;20252;-66
2024/03/24 07:20:30;;;;;;;11.23;4.40;;;7.10;99.90;;;;;;4933127;29;20199;-64
2024/03/24 07:22:58;;;;;;;14.33;5.73;;;7.10;99.90;;;;;;4925636;29;20209;-66
2024/03/24 07:25:24;;;;;;;14.03;5.60;;;7.20;99.90;;;;;;4916845;29;20313;-66
2024/03/24 07:27:51;;;;;;;14.57;6.47;;;7.30;99.90;;;;;;4931121;29;20224;-66
2024/03/24 07:30:18;;;;;;;14.87;5.77;;;7.50;99.90;;;;;;4929448;29;20252;-66
2024/03/24 07:32:47;;;;;;;15.67;5.17;;;7.70;99.90;;;;;;4931063;29;20745;-66
2024/03/24 07:35:13;;;;;;;19.70;5.10;;;7.80;99.90;;;;;;4925771;29;20610;-66
2024/03/24 07:37:40;;;;;;;14.73;4.37;;;8.00;99.90;;;;;;4932864;29;20259;-66
2024/03/24 07:40:08;;;;;;;10.57;4.30;;;8.10;99.90;;;;;;4931159;29;20231;-66
2024/03/24 07:42:35;;;;;;;11.17;4.13;;;8.20;99.90;;;;;;4916599;29;20266;-66
2024/03/24 07:45:02;;;;;;;19.17;4.13;;;8.40;99.90;;;;;;4929532;29;20256;-66
2024/03/24 07:47:30;;;;;;;9.23;3.93;;;8.70;99.90;;;;;;4927653;29;20296;-66
2024/03/24 07:49:58;;;;;;;11.67;3.77;;;8.80;99.90;;;;;;4929924;29;20299;-66
2024/03/24 07:52:26;;;;;;;12.83;3.93;;;8.80;99.90;;;;;;4933239;29;20640;-65
2024/03/24 07:54:52;;;;;;;12.23;4.13;;;9.00;99.90;;;;;;4932994;29;20622;-66
2024/03/24 07:57:19;;;;;;;13.60;3.90;;;9.40;99.90;;;;;;4931182;29;20217;-66
2024/03/24 07:59:46;;;;;;;16.53;4.00;;;9.70;99.90;;;;;;4918260;29;20721;-65
2024/03/24 08:02:13;;;;;;;14.50;4.13;;;10.10;99.90;;;;;;4932191;29;20232;-66
2024/03/24 08:04:39;;;;;;;13.50;3.77;;;10.10;94.60;;;;;;4934363;29;20228;-66
2024/03/24 08:07:08;;;;;;;12.80;3.73;;;9.90;99.20;;;;;;4931074;29;20667;-66
2024/03/24 08:09:35;;;;;;;16.47;3.57;;;10.00;91.90;;;;;;4911092;29;20223;-66
2024/03/24 08:12:02;;;;;;;7.37;3.37;;;10.10;96.90;;;;;;4929633;29;20224;-66
2024/03/24 08:14:28;;;;;;;10.87;3.60;;;11.00;94.30;;;;;;4913424;29;20260;-66
2024/03/24 08:16:57;;;;;;;11.17;3.37;;;11.60;1.00;;;;;;4931928;29;20579;-66
2024/03/24 08:19:24;;;;;;;10.73;4.00;;;12.30;1.00;;;;;;4912470;29;20236;-67
2024/03/24 08:21:51;;;;;;;12.33;4.03;;;12.60;1.00;;;;;;4930297;29;20349;-66
2024/03/24 08:24:19;;;;;;;10.03;3.40;;;12.00;1.00;;;;;;4926875;29;20229;-66
2024/03/24 08:26:46;;;;;;;12.33;4.40;;;11.50;1.00;;;;;;4931467;29;20204;-65
2024/03/24 08:29:13;;;;;;;10.50;4.13;;;11.20;1.00;;;;;;4933746;29;20197;-65
2024/03/24 08:31:40;;;;;;;8.03;3.67;;;11.10;1.00;;;;;;4917261;29;20221;-65
2024/03/24 08:34:06;;;;;;;11.73;3.83;;;11.10;1.00;;;;;;4933238;29;20229;-67
2024/03/24 08:36:34;;;;;;;10.00;3.63;;;11.60;1.00;;;;;;4915532;29;20591;-66
2024/03/24 08:39:02;;;;;;;14.30;3.50;;;12.30;99.90;;;;;;4930754;29;20232;-66
2024/03/24 08:41:30;;;;;;;10.20;3.90;;;12.90;4.20;;;;;;4930305;29;20283;-66
2024/03/24 08:43:57;;;;;;;10.53;4.00;;;13.10;99.90;;;;;;4917527;29;20275;-66
2024/03/24 08:46:25;;;;;;;19.03;4.07;;;12.90;99.90;;;;;;4925194;29;20333;-66
2024/03/24 08:48:54;;;;;;;13.50;4.47;;;12.40;99.90;;;;;;4931428;29;20217;-66
2024/03/24 08:51:21;;;;;;;9.97;3.83;;;12.10;12.90;;;;;;4932574;29;20308;-66
2024/03/24 08:53:48;;;;;;;11.03;3.33;;;12.40;1.00;;;;;;4930043;29;20204;-66
2024/03/24 08:56:15;;;;;;;9.23;3.77;;;12.70;1.00;;;;;;4930947;29;20203;-67
2024/03/24 08:58:43;;;;;;;15.87;3.90;;;12.50;99.90;;;;;;4931593;29;20615;-66
2024/03/24 09:01:10;;;;;;;11.03;4.03;;;12.10;99.90;;;;;;4930761;29;20310;-66
2024/03/24 09:03:38;;;;;;;9.47;3.63;;;12.40;99.90;;;;;;4914167;29;20264;-67
2024/03/24 09:06:06;;;;;;;11.37;3.40;;;13.30;1.00;;;;;;4928711;29;20244;-67
2024/03/24 09:08:33;;;;;;;6.57;3.43;;;14.20;27.90;;;;;;4934108;29;20194;-66
2024/03/24 09:11:00;;;;;;;11.73;3.90;;;13.90;99.90;;;;;;4933128;29;20205;-67
2024/03/24 09:13:26;;;;;;;7.63;3.87;;;13.30;1.00;;;;;;4930096;29;20571;-66
2024/03/24 09:15:56;;;;;;;9.90;3.43;;;13.10;1.00;;;;;;4928803;29;20228;-66
2024/03/24 09:18:22;;;;;;;11.10;3.50;;;12.60;1.00;;;;;;4925481;29;20708;-66
2024/03/24 09:20:49;;;;;;;9.00;3.10;;;12.70;6.90;;;;;;4923434;29;20202;-66
2024/03/24 09:23:16;;;;;;;7.00;2.83;;;12.90;1.00;;;;;;4931562;29;20223;-66
2024/03/24 09:25:43;;;;;;;6.33;2.47;;;12.80;1.00;;;;;;4928195;29;20251;-66
2024/03/24 09:28:09;;;;;;;5.20;3.33;;;12.20;1.00;;;;;;4926560;29;20224;-66
2024/03/24 09:30:37;;;;;;;6.17;2.83;;;12.40;1.00;;;;;;4928141;29;20591;-66
2024/03/24 09:33:05;;;;;;;10.57;4.10;;;13.10;1.00;;;;;;4921118;29;20728;-66
2024/03/24 09:35:32;;;;;;;7.97;3.13;;;14.10;99.90;;;;;;4930640;29;20280;-65
2024/03/24 09:37:59;;;;;;;9.83;3.33;;;15.00;1.00;;;;;;4931448;29;20241;-66
2024/03/24 09:40:26;;;;;;;11.10;3.67;;;15.70;1.00;;;;;;4930782;29;20225;-66
2024/03/24 09:42:56;;;;;;;10.13;4.17;;;16.00;1.00;;;;;;4930234;29;20228;-66
2024/03/24 09:45:26;;;;;;;12.53;4.60;;;16.40;99.90;;;;;;4928977;29;20249;-66
2024/03/24 09:47:53;;;;;;;4.47;2.70;;;15.60;1.00;;;;;;4928792;29;20279;-66
2024/03/24 09:50:23;;;;;;;6.00;2.63;;;13.80;99.90;;;;;;4926295;29;20281;-65
2024/03/24 09:52:51;;;;;;;5.97;2.73;;;12.40;1.00;;;;;;4931844;29;20334;-66
2024/03/24 09:55:20;;;;;;;6.47;3.20;;;11.60;1.00;;;;;;4928755;29;20232;-66
2024/03/24 09:57:46;;;;;;;3.93;2.67;;;11.90;1.00;;;;;;4928010;29;20293;-67
2024/03/24 10:00:15;;;;;;;6.27;2.83;;;13.20;1.00;;;;;;4940984;28;20329;-66
2024/03/24 10:02:43;;;;;;;6.40;2.90;;;13.80;99.90;;;;;;4927201;29;20258;-66
2024/03/24 10:05:10;;;;;;;6.03;2.73;;;14.00;99.90;;;;;;4929119;29;20201;-66
2024/03/24 10:07:38;;;;;;;10.13;5.93;;;13.70;1.00;;;;;;4924380;29;20224;-66
2024/03/24 10:10:07;;;;;;;13.13;5.40;;;13.10;1.00;;;;;;4926763;29;21093;-66
2024/03/24 10:12:34;;;;;;;9.37;3.30;;;12.80;83.30;;;;;;4924071;29;20224;-66
2024/03/24 10:15:17;;;;;;;6.27;3.30;;;13.00;1.00;;;;;;4925620;29;20224;-66
2024/03/24 10:17:43;;;;;;;4.77;3.20;;;13.90;1.00;;;;;;4926557;29;20200;-66
2024/03/24 10:20:13;;;;;;;7.07;3.20;;;13.80;1.00;;;;;;4925411;28;20275;-66
2024/03/24 10:22:54;;;;;;;12.37;5.10;;;13.50;1.00;;;;;;4923246;29;20619;-66
2024/03/24 10:25:24;;;;;;;8.23;3.80;;;14.40;81.50;;;;;;4929235;29;20307;-64
2024/03/24 10:27:50;;;;;;;7.73;3.13;;;15.50;99.90;;;;;;4935404;29;20324;-64
2024/03/24 10:30:18;;;;;;;7.60;3.27;;;16.20;1.00;;;;;;4949017;29;20217;-64
2024/03/24 10:32:45;;;;;;;7.03;3.10;;;17.30;99.90;;;;;;4928458;28;20719;-64
2024/03/24 10:35:13;;;;;;;6.57;3.00;;;17.00;99.90;;;;;;4954773;29;20224;-65
2024/03/24 10:37:42;;;;;;;8.10;3.10;;;17.40;99.90;;;;;;4951815;29;20235;-65
2024/03/24 10:40:12;;;;;;;6.37;2.80;;;18.10;1.00;;;;;;4934100;29;20291;-64
2024/03/24 10:42:46;;;;;;;7.90;2.83;;;18.50;1.00;;;;;;4936980;29;20769;-64
2024/03/24 10:45:15;;;;;;;5.80;2.90;;;18.10;99.90;;;;;;4930862;29;20234;-65
2024/03/24 10:51:24;;;;;;;5.67;2.73;;;17.50;99.90;;;;;;4936364;29;20218;-65
2024/03/24 10:57:34;;;;;;;8.40;3.10;;;18.20;99.90;;;;;;4954739;28;20238;-65
2024/03/24 11:00:01;;;;;;;5.53;3.20;;;18.70;99.90;;;;;;4937611;29;20226;-65
2024/03/24 11:02:28;;;;;;;11.37;5.00;;;18.90;47.50;;;;;;4951041;29;20198;-64
2024/03/24 11:08:39;;;;;;;9.73;3.17;;;16.60;33.40;;;;;;4955088;28;20247;-64
2024/03/24 11:11:06;;;;;;;10.13;3.27;;;15.00;99.90;;;;;;4954566;29;20238;-64
2024/03/24 11:13:37;;;;;;;5.83;3.23;;;15.20;1.00;;;;;;4951376;29;20314;-64
2024/03/24 11:19:49;;;;;;;5.90;2.77;;;15.00;1.00;;;;;;4954324;28;20234;-64
2024/03/24 11:25:59;;;;;;;7.13;2.30;;;15.90;99.90;;;;;;4955927;28;20223;-64
2024/03/24 11:28:44;;;;;;;9.03;4.10;;;15.40;99.90;;;;;;4957270;29;20227;-63
2024/03/24 11:31:14;;;;;;;9.93;4.00;;;15.70;99.90;;;;;;4954424;29;20271;-64
2024/03/24 11:33:40;;;;;;;7.63;3.40;;;16.30;99.90;;;;;;4939112;29;20228;-63
2024/03/24 11:36:20;;;;;;;6.57;3.07;;;16.00;99.90;;;;;;4940849;29;20275;-64
2024/03/24 11:38:46;;;;;;;8.87;3.00;;;14.90;99.90;;;;;;4937799;28;20327;-63
2024/03/24 11:41:15;;;;;;;5.30;2.40;;;14.40;1.00;;;;;;4938489;29;20233;-63
2024/03/24 11:43:43;;;;;;;8.43;3.10;;;15.20;1.00;;;;;;4938400;29;20278;-63
2024/03/24 11:49:52;;;;;;;5.43;2.73;;;15.40;99.90;;;;;;4920337;29;20311;-64
2024/03/24 11:52:20;;;;;;;6.47;2.67;;;15.60;99.90;;;;;;4918688;29;20232;-64
2024/03/24 11:54:49;;;;;;;7.27;2.50;;;15.30;99.90;;;;;;4919189;29;20225;-63
2024/03/24 11:57:17;;;;;;;8.40;2.80;;;14.50;99.90;;;;;;4918615;29;20232;-65
2024/03/24 11:59:47;;;;;;;9.77;2.90;;;13.80;1.00;;;;;;4918430;29;20258;-63
2024/03/24 12:02:13;;;;;;;7.63;2.93;;;13.20;1.00;;;;;;4903261;29;20288;-64
2024/03/24 12:04:41;;;;;;;8.53;3.13;;;13.30;1.00;;;;;;4918532;29;20307;-64
2024/03/24 12:07:10;;;;;;;6.20;2.40;;;13.30;1.00;;;;;;4918652;29;20313;-64
2024/03/24 12:09:38;;;;;;;5.17;2.57;;;13.20;1.00;;;;;;4918473;29;20754;-63
2024/03/24 12:12:05;;;;;;;8.33;2.80;;;12.80;99.90;;;;;;4918305;29;20313;-64
2024/03/24 12:14:32;;;;;;;8.43;2.93;;;12.70;1.00;;;;;;4918465;29;20292;-63
2024/03/24 12:17:05;;;;;;;6.23;2.33;;;12.60;1.00;;;;;;4919113;29;20264;-64
2024/03/24 12:19:33;;;;;;;12.87;4.93;;;12.40;1.00;;;;;;4918211;29;20316;-64
2024/03/24 12:21:59;;;;;;;10.97;5.87;;;12.20;1.00;;;;;;4918089;29;20307;-64
2024/03/24 12:25:04;;;;;;;6.47;3.60;;;12.00;99.90;;;;;;4918296;29;20309;-64
2024/03/24 12:27:30;;;;;;;9.97;4.00;;;11.80;99.90;;;;;;4902703;29;20225;-64
2024/03/24 12:29:57;;;;;;;13.80;5.80;;;11.60;1.00;;;;;;4932656;29;20313;-63
2024/03/24 12:36:07;;;;;;;7.20;2.90;;;11.60;1.00;;;;;;4957230;29;20675;-63
2024/03/24 12:38:34;;;;;;;10.30;4.37;;;11.40;1.00;;;;;;4955350;28;20587;-64
2024/03/24 12:41:01;;;;;;;6.23;3.30;;;11.20;1.00;;;;;;4956492;29;20192;-63
2024/03/24 12:43:28;;;;;;;10.30;3.40;;;11.10;1.00;;;;;;4955996;29;20307;-63
2024/03/24 12:45:57;;;;;;;7.27;3.40;;;11.10;99.90;;;;;;4956339;29;20270;-64
2024/03/24 12:48:25;;;;;;;12.77;3.40;;;11.10;1.00;;;;;;4951759;29;20311;-64
2024/03/24 12:50:53;;;;;;;9.20;3.47;;;11.00;1.00;;;;;;4936874;29;20231;-64
2024/03/24 12:53:34;;;;;;;6.03;3.00;;;10.90;34.40;;;;;;4937646;29;20291;-63
2024/03/24 12:56:03;;;;;;;8.17;3.90;;;10.80;1.00;;;;;;4936838;29;20244;-64
2024/03/24 12:58:34;;;;;;;16.97;4.97;;;10.70;1.00;;;;;;4936516;29;20239;-64
2024/03/24 13:01:03;;;;;;;13.07;4.97;;;10.50;1.00;;;;;;4936471;29;20360;-64
2024/03/24 13:03:30;;;;;;;8.23;4.43;;;10.50;1.00;;;;;;4936465;29;20234;-64
2024/03/24 13:06:00;;;;;;;6.37;3.40;;;10.50;1.00;;;;;;4936439;29;20221;-64
2024/03/24 13:08:28;;;;;;;9.73;3.40;;;10.40;99.90;;;;;;4940075;29;20192;-65
2024/03/24 13:10:55;;;;;;;7.37;4.17;;;10.40;1.00;;;;;;4955810;29;20590;-64
2024/03/24 13:13:22;;;;;;;5.80;3.60;;;10.40;92.00;;;;;;4955956;29;20228;-64
2024/03/24 13:15:49;;;;;;;8.77;3.77;;;10.30;1.00;;;;;;4955567;29;20224;-65
2024/03/24 13:18:23;;;;;;;10.73;4.20;;;10.30;99.90;;;;;;4955494;29;20311;-64